GRDEF EGTE-EGLA
Flight info
| Callsign | GRDEF |
|---|---|
| Flight time | N/A |
| Altitude | 4500 |
| Route | VFR |
| Aircraft | C152/L-VGD/A |
Departure
| Time | 2026-05-05 15:29 |
|---|---|
| Airport | Exeter International Airport (EGTE) |
Arrival
| Time | N/A |
|---|---|
| Airport | Bodmin Airfield (EGLA) |
| Time | Latitude | Longitude | Altitude | Speed | Heading |
|---|---|---|---|---|---|
| 2026-05-05 15:17 | 50.73190 | -3.41037 | 87 ft | 0 kts | 172° |
| 2026-05-05 15:24 | 50.73184 | -3.41041 | 87 ft | 1 kts | 256° |
| 2026-05-05 15:24 | 50.73206 | -3.41087 | 84 ft | 7 kts | 301° |
| 2026-05-05 15:24 | 50.73225 | -3.41130 | 84 ft | 8 kts | 292° |
| 2026-05-05 15:25 | 50.73205 | -3.41249 | 84 ft | 15 kts | 255° |
| 2026-05-05 15:25 | 50.73207 | -3.41438 | 84 ft | 18 kts | 271° |
| 2026-05-05 15:25 | 50.73211 | -3.41575 | 84 ft | 11 kts | 268° |
| 2026-05-05 15:25 | 50.73221 | -3.41687 | 86 ft | 12 kts | 268° |
| 2026-05-05 15:26 | 50.73182 | -3.41805 | 84 ft | 11 kts | 238° |
| 2026-05-05 15:26 | 50.73142 | -3.41912 | 84 ft | 11 kts | 241° |
| 2026-05-05 15:26 | 50.73111 | -3.42012 | 83 ft | 12 kts | 246° |
| 2026-05-05 15:26 | 50.73075 | -3.42134 | 83 ft | 11 kts | 264° |
| 2026-05-05 15:27 | 50.73116 | -3.42203 | 83 ft | 9 kts | 348° |
| 2026-05-05 15:27 | 50.73166 | -3.42231 | 85 ft | 7 kts | 8° |
| 2026-05-05 15:27 | 50.73185 | -3.42230 | 83 ft | 0 kts | 351° |
| 2026-05-05 15:27 | 50.73202 | -3.42238 | 83 ft | 9 kts | 343° |
| 2026-05-05 15:28 | 50.73286 | -3.42250 | 89 ft | 10 kts | 51° |
| 2026-05-05 15:28 | 50.73304 | -3.42188 | 85 ft | 11 kts | 76° |
| 2026-05-05 15:28 | 50.73355 | -3.41857 | 82 ft | 50 kts | 76° |
| 2026-05-05 15:28 | 50.73463 | -3.41197 | 116 ft | 68 kts | 86° |
| 2026-05-05 15:29 | 50.73607 | -3.40509 | 269 ft | 65 kts | 63° |
| 2026-05-05 15:29 | 50.73893 | -3.40217 | 481 ft | 60 kts | 334° |
| 2026-05-05 15:29 | 50.74255 | -3.40493 | 631 ft | 57 kts | 306° |
| 2026-05-05 15:29 | 50.74259 | -3.41186 | 711 ft | 71 kts | 264° |
| 2026-05-05 15:30 | 50.74090 | -3.42320 | 855 ft | 93 kts | 266° |
| 2026-05-05 15:30 | 50.74033 | -3.42995 | 945 ft | 89 kts | 265° |
| 2026-05-05 15:30 | 50.73568 | -3.43640 | 913 ft | 108 kts | 195° |
| 2026-05-05 15:30 | 50.73013 | -3.43424 | 772 ft | 70 kts | 60° |
| 2026-05-05 15:31 | 50.73241 | -3.42679 | 474 ft | 82 kts | 76° |
| 2026-05-05 15:31 | 50.73312 | -3.41817 | 533 ft | 77 kts | 73° |
| 2026-05-05 15:31 | 50.73391 | -3.41037 | 746 ft | 67 kts | 65° |
| 2026-05-05 15:31 | 50.73739 | -3.40764 | 946 ft | 69 kts | 352° |
| 2026-05-05 15:32 | 50.74218 | -3.41029 | 975 ft | 79 kts | 333° |
| 2026-05-05 15:32 | 50.74459 | -3.41816 | 975 ft | 93 kts | 260° |
| 2026-05-05 15:32 | 50.74056 | -3.42700 | 810 ft | 101 kts | 250° |
| 2026-05-05 15:32 | 50.73802 | -3.43556 | 778 ft | 83 kts | 221° |
| 2026-05-05 15:33 | 50.73273 | -3.43520 | 602 ft | 85 kts | 148° |
| 2026-05-05 15:33 | 50.73216 | -3.42757 | 245 ft | 74 kts | 70° |
| 2026-05-05 15:33 | 50.73317 | -3.42091 | 95 ft | 51 kts | 67° |
| 2026-05-05 15:33 | 50.73385 | -3.41688 | 82 ft | 36 kts | 77° |
| 2026-05-05 15:34 | 50.73467 | -3.41136 | 102 ft | 62 kts | 69° |
| 2026-05-05 15:34 | 50.73570 | -3.40479 | 246 ft | 63 kts | 73° |
| 2026-05-05 15:34 | 50.73652 | -3.39786 | 386 ft | 62 kts | 56° |
| 2026-05-05 15:34 | 50.74028 | -3.39600 | 508 ft | 61 kts | 339° |
| 2026-05-05 15:35 | 50.74363 | -3.39997 | 657 ft | 68 kts | 308° |
| 2026-05-05 15:35 | 50.74433 | -3.40817 | 698 ft | 84 kts | 275° |
| 2026-05-05 15:35 | 50.74368 | -3.41780 | 802 ft | 87 kts | 269° |
| 2026-05-05 15:35 | 50.74212 | -3.42739 | 866 ft | 94 kts | 259° |
| 2026-05-05 15:36 | 50.73960 | -3.43736 | 791 ft | 99 kts | 247° |
| 2026-05-05 15:36 | 50.73451 | -3.44299 | 737 ft | 88 kts | 184° |
| 2026-05-05 15:36 | 50.73006 | -3.43928 | 601 ft | 64 kts | 89° |
| 2026-05-05 15:36 | 50.73139 | -3.43245 | 329 ft | 65 kts | 76° |
| 2026-05-05 15:37 | 50.73239 | -3.42605 | 146 ft | 55 kts | 71° |
| 2026-05-05 15:37 | 50.73318 | -3.42085 | 84 ft | 40 kts | 66° |
| 2026-05-05 15:37 | 50.73404 | -3.41551 | 89 ft | 63 kts | 73° |
| 2026-05-05 15:37 | 50.73503 | -3.40860 | 225 ft | 66 kts | 64° |
| 2026-05-05 15:38 | 50.73652 | -3.40236 | 457 ft | 53 kts | 30° |
| 2026-05-05 15:38 | 50.74006 | -3.40199 | 570 ft | 54 kts | 353° |
| 2026-05-05 15:38 | 50.74234 | -3.40696 | 620 ft | 72 kts | 285° |
| 2026-05-05 15:38 | 50.74156 | -3.41523 | 736 ft | 83 kts | 258° |
| 2026-05-05 15:39 | 50.73956 | -3.42395 | 946 ft | 75 kts | 251° |
| 2026-05-05 15:39 | 50.73618 | -3.43073 | 987 ft | 90 kts | 232° |
| 2026-05-05 15:39 | 50.73365 | -3.44022 | 1006 ft | 95 kts | 260° |
| 2026-05-05 15:39 | 50.73200 | -3.45059 | 952 ft | 94 kts | 265° |
| 2026-05-05 15:40 | 50.73096 | -3.46053 | 1062 ft | 89 kts | 269° |
| 2026-05-05 15:40 | 50.72995 | -3.47045 | 1061 ft | 95 kts | 270° |
| 2026-05-05 15:40 | 50.72916 | -3.48112 | 996 ft | 97 kts | 274° |
| 2026-05-05 15:40 | 50.72913 | -3.49128 | 1064 ft | 91 kts | 282° |
| 2026-05-05 15:41 | 50.72980 | -3.50155 | 1062 ft | 96 kts | 283° |
| 2026-05-05 15:41 | 50.73038 | -3.51137 | 1165 ft | 85 kts | 279° |
| 2026-05-05 15:41 | 50.73044 | -3.52042 | 1267 ft | 79 kts | 276° |
| 2026-05-05 15:41 | 50.73018 | -3.52936 | 1309 ft | 81 kts | 279° |
| 2026-05-05 15:42 | 50.73032 | -3.53808 | 1391 ft | 74 kts | 295° |
| 2026-05-05 15:42 | 50.73267 | -3.54505 | 1421 ft | 72 kts | 310° |
| 2026-05-05 15:42 | 50.73489 | -3.55206 | 1451 ft | 76 kts | 288° |
| 2026-05-05 15:42 | 50.73555 | -3.56057 | 1421 ft | 78 kts | 291° |
| 2026-05-05 15:43 | 50.73647 | -3.56890 | 1474 ft | 78 kts | 289° |
| 2026-05-05 15:43 | 50.73754 | -3.57727 | 1561 ft | 77 kts | 292° |
| 2026-05-05 15:43 | 50.73916 | -3.58524 | 1651 ft | 72 kts | 307° |
| 2026-05-05 15:43 | 50.74172 | -3.59255 | 1458 ft | 71 kts | 302° |
| 2026-05-05 15:44 | 50.74358 | -3.59912 | 1434 ft | 66 kts | 301° |
| 2026-05-05 15:44 | 50.74415 | -3.60626 | 1520 ft | 71 kts | 258° |
| 2026-05-05 15:44 | 50.74077 | -3.61258 | 1589 ft | 79 kts | 226° |
| 2026-05-05 15:44 | 50.73605 | -3.61677 | 1653 ft | 80 kts | 207° |
| 2026-05-05 15:45 | 50.73088 | -3.61975 | 1755 ft | 75 kts | 197° |
| 2026-05-05 15:45 | 50.72538 | -3.62102 | 1734 ft | 85 kts | 191° |
| 2026-05-05 15:45 | 50.71960 | -3.62263 | 1825 ft | 84 kts | 197° |
| 2026-05-05 15:45 | 50.71405 | -3.62485 | 1947 ft | 83 kts | 199° |
| 2026-05-05 15:46 | 50.70844 | -3.62796 | 1915 ft | 91 kts | 221° |
| 2026-05-05 15:46 | 50.70496 | -3.63639 | 1935 ft | 90 kts | 246° |
| 2026-05-05 15:46 | 50.70318 | -3.64530 | 1959 ft | 85 kts | 288° |
| 2026-05-05 15:46 | 50.70622 | -3.65254 | 2013 ft | 77 kts | 317° |
| 2026-05-05 15:47 | 50.70888 | -3.65683 | 2009 ft | 79 kts | 317° |